Time;durP1;ratioP1;P1;durP2;ratioP2;P2;SDS_P1;SDS_P2;PMS_P1;PMS_P2;Temp;Humidity;BMP_temperature;BMP_pressure;BME280_temperature;BME280_humidity;BME280_pressure;Samples;Min_cycle;Max_cycle;Signal;HPM_P1;HPM_P2
2021/06/19 00:00:13;;;;;;;3.20;1.52;;;18.60;41.10;;;;;;4373425;32;20066;-36
2021/06/19 00:02:40;;;;;;;4.55;1.17;;;18.60;41.30;;;;;;4388061;32;20155;-36
2021/06/19 00:05:08;;;;;;;4.93;1.50;;;18.60;41.30;;;;;;4387768;32;20060;-35
2021/06/19 00:07:35;;;;;;;6.80;1.80;;;18.60;41.80;;;;;;4355087;32;20173;-35
2021/06/19 00:10:01;;;;;;;5.03;1.77;;;18.70;41.40;;;;;;4342398;32;20070;-37
2021/06/19 00:12:28;;;;;;;7.15;1.50;;;18.70;41.30;;;;;;4355031;32;20163;-36
2021/06/19 00:14:54;;;;;;;3.35;1.50;;;18.70;41.30;;;;;;4354993;32;20136;-36
2021/06/19 00:17:21;;;;;;;3.55;1.73;;;18.60;41.30;;;;;;4356385;32;20082;-36
2021/06/19 00:19:47;;;;;;;4.70;1.50;;;18.60;41.40;;;;;;4357909;32;20511;-37
2021/06/19 00:22:14;;;;;;;7.70;1.83;;;18.50;41.40;;;;;;4358403;32;20570;-36
2021/06/19 00:24:40;;;;;;;7.25;1.40;;;18.40;41.60;;;;;;4358047;32;20088;-37
2021/06/19 00:27:07;;;;;;;4.32;1.55;;;18.40;41.90;;;;;;4357912;32;20082;-37
2021/06/19 00:29:34;;;;;;;8.98;1.92;;;18.30;41.90;;;;;;4345505;32;20057;-37
2021/06/19 00:32:01;;;;;;;4.32;1.87;;;18.20;42.10;;;;;;4327710;33;20241;-36
2021/06/19 00:34:27;;;;;;;4.82;1.83;;;18.20;42.40;;;;;;4327696;33;20074;-36
2021/06/19 00:36:54;;;;;;;4.25;1.92;;;18.20;42.40;;;;;;4315938;33;20078;-36
2021/06/19 00:39:20;;;;;;;5.00;2.00;;;18.20;42.30;;;;;;4328061;33;20082;-36
2021/06/19 00:41:46;;;;;;;9.68;2.25;;;18.10;42.50;;;;;;4316110;33;20064;-36
2021/06/19 00:44:19;;;;;;;8.45;1.85;;;18.10;42.60;;;;;;4330233;33;20489;-37
2021/06/19 00:46:50;;;;;;;4.70;1.98;;;18.10;42.80;;;;;;4318365;33;20172;-36
2021/06/19 00:49:17;;;;;;;3.17;1.73;;;18.20;43.00;;;;;;4327959;33;20056;-36
2021/06/19 00:51:44;;;;;;;4.05;1.90;;;18.20;42.80;;;;;;4328159;33;20174;-36
2021/06/19 00:54:11;;;;;;;5.65;1.45;;;18.20;42.70;;;;;;4327951;33;20166;-36
2021/06/19 00:56:37;;;;;;;4.25;1.55;;;18.20;42.80;;;;;;4327897;33;20554;-36
2021/06/19 00:59:05;;;;;;;10.93;1.65;;;18.10;43.00;;;;;;4327715;33;20082;-36
2021/06/19 01:01:32;;;;;;;4.75;1.40;;;18.00;43.00;;;;;;4327825;33;20563;-36
2021/06/19 01:04:01;;;;;;;2.60;1.45;;;17.90;43.20;;;;;;4312721;33;20614;-36
2021/06/19 01:06:27;;;;;;;4.25;1.45;;;17.90;43.40;;;;;;4317680;33;20074;-36
2021/06/19 01:08:54;;;;;;;4.37;1.65;;;17.90;43.70;;;;;;4338936;32;20067;-36
2021/06/19 01:11:23;;;;;;;4.70;1.90;;;17.90;43.70;;;;;;4372036;32;20078;-36
2021/06/19 01:13:50;;;;;;;4.45;1.30;;;18.00;43.90;;;;;;4329777;33;20680;-36
2021/06/19 01:16:20;;;;;;;2.35;1.08;;;18.10;44.10;;;;;;4342727;33;20130;-36
2021/06/19 01:18:47;;;;;;;2.33;1.20;;;18.40;43.90;;;;;;4330803;33;20071;-36
2021/06/19 01:21:15;;;;;;;5.28;1.60;;;18.70;43.50;;;;;;4342577;33;20604;-36
2021/06/19 01:23:42;;;;;;;3.70;1.30;;;19.10;42.90;;;;;;4342279;33;20171;-35
2021/06/19 01:26:15;;;;;;;6.85;2.20;;;19.40;42.20;;;;;;4312211;33;20216;-37
2021/06/19 01:28:46;;;;;;;7.50;1.42;;;19.50;41.70;;;;;;4312431;33;20074;-35
2021/06/19 01:31:12;;;;;;;6.95;1.42;;;19.50;41.90;;;;;;4283588;33;20236;-36
2021/06/19 01:33:40;;;;;;;4.45;1.60;;;19.60;41.90;;;;;;4283752;33;20104;-34
2021/06/19 01:36:07;;;;;;;10.27;2.47;;;19.60;42.10;;;;;;4283376;33;20099;-37
2021/06/19 01:38:39;;;;;;;5.78;1.80;;;19.70;42.30;;;;;;4283586;33;20072;-36
2021/06/19 01:41:15;;;;;;;8.63;1.67;;;20.00;42.40;;;;;;4283385;33;20654;-36
2021/06/19 01:43:43;;;;;;;9.52;2.97;;;20.40;42.10;;;;;;4284403;33;20134;-36
2021/06/19 01:46:11;;;;;;;3.10;1.15;;;20.80;41.60;;;;;;4312320;33;20540;-36
2021/06/19 01:48:38;;;;;;;4.60;1.30;;;21.30;41.00;;;;;;4321435;33;20094;-35
2021/06/19 01:51:08;;;;;;;3.47;1.48;;;21.60;40.40;;;;;;4327186;33;20098;-35
2021/06/19 01:53:38;;;;;;;2.75;1.23;;;21.90;40.10;;;;;;4326805;33;20538;-36
2021/06/19 01:56:06;;;;;;;11.23;1.73;;;22.20;39.90;;;;;;4328642;32;20074;-36
2021/06/19 01:58:33;;;;;;;5.57;1.83;;;22.60;39.40;;;;;;4356534;32;20090;-36
2021/06/19 02:01:00;;;;;;;3.42;1.02;;;22.90;38.60;;;;;;4356866;32;20067;-35
2021/06/19 02:03:27;;;;;;;3.55;1.10;;;23.20;38.50;;;;;;4374161;32;20061;-35
2021/06/19 02:05:53;;;;;;;5.93;1.95;;;23.50;38.40;;;;;;4374035;32;20066;-36
2021/06/19 02:08:21;;;;;;;12.88;2.30;;;23.90;38.10;;;;;;4390022;32;20069;-37
2021/06/19 02:10:47;;;;;;;9.70;2.50;;;24.30;38.30;;;;;;4377293;32;20558;-37
2021/06/19 02:13:14;;;;;;;11.02;2.20;;;24.80;37.70;;;;;;4403981;32;20076;-36
2021/06/19 02:15:44;;;;;;;18.27;2.80;;;25.20;37.10;;;;;;4403922;32;20088;-35
2021/06/19 02:18:10;;;;;;;8.52;1.85;;;25.60;36.90;;;;;;4403952;32;20553;-36
2021/06/19 02:20:37;;;;;;;8.65;1.85;;;26.10;37.30;;;;;;4403902;32;20054;-37
2021/06/19 02:23:04;;;;;;;9.65;2.15;;;26.40;37.00;;;;;;4403644;32;20622;-35
2021/06/19 02:25:31;;;;;;;11.68;2.83;;;26.80;36.90;;;;;;4404203;32;20073;-36
2021/06/19 02:28:07;;;;;;;9.82;2.20;;;27.20;36.50;;;;;;4386018;32;20165;-36
2021/06/19 02:30:39;;;;;;;8.48;2.03;;;27.70;36.10;;;;;;4386257;32;20066;-36
2021/06/19 02:33:06;;;;;;;13.38;2.33;;;28.20;35.70;;;;;;4373726;32;20725;-36
2021/06/19 02:35:35;;;;;;;11.90;2.97;;;28.60;35.10;;;;;;4373796;32;20080;-35
2021/06/19 02:38:03;;;;;;;9.50;2.75;;;28.90;33.90;;;;;;4386091;32;20196;-35
2021/06/19 02:40:29;;;;;;;9.15;2.50;;;29.10;33.20;;;;;;4385784;32;20085;-35
2021/06/19 02:42:56;;;;;;;10.10;2.28;;;29.30;32.10;;;;;;4386042;32;20569;-35
2021/06/19 02:45:22;;;;;;;7.55;1.95;;;29.50;31.30;;;;;;4386017;32;20080;-36
2021/06/19 02:47:51;;;;;;;11.63;2.03;;;29.60;30.80;;;;;;4377485;32;20066;-37
2021/06/19 02:50:20;;;;;;;10.63;2.35;;;29.70;30.70;;;;;;4343704;32;20059;-36
2021/06/19 02:52:46;;;;;;;8.13;2.28;;;29.80;30.50;;;;;;4343830;32;20074;-36
2021/06/19 02:55:17;;;;;;;11.95;2.67;;;30.00;30.40;;;;;;4355978;32;20579;-36
2021/06/19 02:57:44;;;;;;;10.00;2.33;;;30.10;30.20;;;;;;4311324;33;20096;-36
2021/06/19 03:00:13;;;;;;;8.55;2.05;;;30.30;30.00;;;;;;4340372;33;20063;-36
2021/06/19 03:02:39;;;;;;;6.22;1.70;;;30.40;30.00;;;;;;4328707;33;20183;-36
2021/06/19 03:05:08;;;;;;;6.07;1.52;;;30.60;30.10;;;;;;4341133;33;20063;-36
2021/06/19 03:07:34;;;;;;;12.93;2.45;;;30.80;30.00;;;;;;4328879;33;20093;-35
2021/06/19 03:10:01;;;;;;;9.20;2.00;;;31.00;30.00;;;;;;4340526;33;20066;-36
2021/06/19 03:12:27;;;;;;;2.50;0.90;;;31.20;30.00;;;;;;4328794;33;20086;-36
2021/06/19 03:14:56;;;;;;;11.38;1.65;;;31.40;30.10;;;;;;4340967;33;20120;-37
2021/06/19 03:17:23;;;;;;;7.40;1.90;;;31.40;29.80;;;;;;4328657;33;20752;-37
2021/06/19 03:19:49;;;;;;;6.37;1.90;;;31.40;29.70;;;;;;4340380;33;20122;-37
2021/06/19 03:22:16;;;;;;;3.37;1.55;;;31.40;29.90;;;;;;4341089;33;20103;-37
2021/06/19 03:24:43;;;;;;;6.47;1.58;;;31.50;30.00;;;;;;4340958;33;20157;-37
2021/06/19 03:27:12;;;;;;;3.62;1.33;;;31.50;29.60;;;;;;4341004;33;20175;-36
2021/06/19 03:29:38;;;;;;;4.68;1.50;;;31.50;29.90;;;;;;4382312;32;20065;-36
2021/06/19 03:32:06;;;;;;;3.67;1.25;;;31.50;29.80;;;;;;4387566;32;20081;-36
2021/06/19 03:34:33;;;;;;;5.37;1.05;;;31.30;30.10;;;;;;4361057;32;20586;-36
2021/06/19 03:37:00;;;;;;;5.78;1.00;;;31.30;30.40;;;;;;4387964;32;20096;-36
2021/06/19 03:39:32;;;;;;;6.12;0.90;;;31.40;30.80;;;;;;4374146;32;20181;-36
2021/06/19 03:41:59;;;;;;;7.65;0.80;;;31.40;30.40;;;;;;4373550;32;20070;-35
2021/06/19 03:44:26;;;;;;;4.72;1.30;;;31.40;30.50;;;;;;4387979;32;20073;-36
2021/06/19 03:46:52;;;;;;;1.55;0.70;;;31.30;31.10;;;;;;4388178;32;20058;-36
2021/06/19 03:49:19;;;;;;;9.45;0.70;;;31.10;31.90;;;;;;4401001;32;20166;-36
2021/06/19 03:51:47;;;;;;;7.93;0.60;;;31.10;32.80;;;;;;4403138;32;20084;-36
2021/06/19 03:54:14;;;;;;;5.32;0.70;;;31.00;32.10;;;;;;4406271;32;20148;-36
2021/06/19 03:56:40;;;;;;;4.15;0.55;;;30.90;32.70;;;;;;4405814;32;20057;-36
2021/06/19 03:59:08;;;;;;;1.87;0.40;;;30.70;33.40;;;;;;4406231;32;20054;-37
2021/06/19 04:01:34;;;;;;;5.70;1.08;;;30.70;33.00;;;;;;4405787;32;20061;-36
2021/06/19 04:04:00;;;;;;;4.28;0.65;;;30.70;30.90;;;;;;4357441;32;20108;-44
2021/06/19 04:06:27;;;;;;;2.28;0.40;;;30.60;31.70;;;;;;4333478;32;20158;-36
2021/06/19 04:08:53;;;;;;;5.03;0.88;;;30.60;31.60;;;;;;4358158;32;20085;-36
2021/06/19 04:11:20;;;;;;;2.25;0.60;;;30.60;31.50;;;;;;4358170;32;20190;-37
2021/06/19 04:13:46;;;;;;;3.90;0.50;;;30.60;32.30;;;;;;4358096;32;20106;-37
2021/06/19 04:16:13;;;;;;;7.37;0.60;;;30.60;31.90;;;;;;4358252;32;20070;-36
2021/06/19 04:18:39;;;;;;;1.70;0.70;;;30.50;31.80;;;;;;4358498;32;20098;-36
2021/06/19 04:21:07;;;;;;;2.00;0.55;;;30.30;32.40;;;;;;4345792;32;20074;-36
2021/06/19 04:23:34;;;;;;;3.55;0.85;;;30.20;32.80;;;;;;4357630;32;20108;-36
2021/06/19 04:26:01;;;;;;;1.83;0.65;;;30.20;33.20;;;;;;4345889;32;20071;-36
2021/06/19 04:28:29;;;;;;;3.58;0.60;;;30.30;33.10;;;;;;4357797;32;20062;-35
2021/06/19 04:31:00;;;;;;;4.68;0.73;;;30.40;32.60;;;;;;4345735;32;20074;-36
2021/06/19 04:33:27;;;;;;;6.00;0.68;;;30.50;31.80;;;;;;4357986;32;20062;-36
2021/06/19 04:35:57;;;;;;;7.35;0.68;;;30.50;32.10;;;;;;4385209;32;20142;-37
2021/06/19 04:38:23;;;;;;;4.55;0.50;;;30.40;32.80;;;;;;4405013;32;20517;-37
2021/06/19 04:41:00;;;;;;;3.55;0.60;;;30.30;31.30;;;;;;4405373;32;20097;-36
2021/06/19 04:43:34;;;;;;;6.57;0.50;;;30.10;30.10;;;;;;4405314;32;20126;-36
2021/06/19 04:46:00;;;;;;;4.78;0.50;;;30.10;30.50;;;;;;4405557;32;20074;-36
2021/06/19 04:48:27;;;;;;;5.53;0.50;;;30.20;31.30;;;;;;4397161;32;20090;-37
2021/06/19 04:50:53;;;;;;;1.12;0.40;;;30.40;31.10;;;;;;4390075;32;20068;-37
2021/06/19 04:53:20;;;;;;;3.35;0.40;;;30.60;30.60;;;;;;4389992;32;20522;-37
2021/06/19 04:55:46;;;;;;;2.67;0.50;;;30.60;30.00;;;;;;4389704;32;20513;-36
2021/06/19 04:58:12;;;;;;;3.47;0.43;;;30.80;29.90;;;;;;4388433;32;20498;-36
2021/06/19 05:00:39;;;;;;;0.88;0.50;;;30.90;30.00;;;;;;4388121;32;20635;-36
2021/06/19 05:03:06;;;;;;;2.67;0.30;;;31.00;29.90;;;;;;4387363;32;20062;-36
2021/06/19 05:05:33;;;;;;;3.28;0.65;;;31.10;29.10;;;;;;4389494;32;20502;-35
2021/06/19 05:07:59;;;;;;;3.40;0.70;;;30.90;30.10;;;;;;4389963;32;20073;-36
2021/06/19 05:10:27;;;;;;;4.20;0.82;;;30.70;30.60;;;;;;4389450;32;20461;-35
2021/06/19 05:12:53;;;;;;;1.65;0.40;;;30.60;30.90;;;;;;4389965;32;20510;-37
2021/06/19 05:15:29;;;;;;;2.10;0.50;;;30.60;30.90;;;;;;4388088;32;20161;-36
2021/06/19 05:17:56;;;;;;;3.28;0.35;;;30.70;29.60;;;;;;4389590;32;20173;-37
2021/06/19 05:20:23;;;;;;;2.67;0.40;;;30.90;30.00;;;;;;4388307;32;20101;-36
2021/06/19 05:22:49;;;;;;;1.17;0.40;;;31.10;30.40;;;;;;4389654;32;20133;-37
2021/06/19 05:25:16;;;;;;;5.37;0.30;;;31.30;30.80;;;;;;4389115;32;20069;-37
2021/06/19 05:27:42;;;;;;;3.65;0.60;;;31.50;30.00;;;;;;4389102;32;20139;-37
2021/06/19 05:30:11;;;;;;;4.07;0.35;;;31.70;30.00;;;;;;4389171;32;20070;-38
2021/06/19 05:32:37;;;;;;;3.58;0.73;;;31.90;29.00;;;;;;4388093;32;21351;-37
2021/06/19 05:35:04;;;;;;;1.48;0.22;;;31.80;29.10;;;;;;4356876;32;20178;-37
2021/06/19 05:37:31;;;;;;;2.60;0.30;;;31.80;28.50;;;;;;4344546;32;20444;-37
2021/06/19 05:39:57;;;;;;;4.45;0.35;;;31.80;28.80;;;;;;4344679;32;20157;-37
2021/06/19 05:42:24;;;;;;;2.83;0.30;;;31.80;28.90;;;;;;4344651;32;20083;-37
2021/06/19 05:44:51;;;;;;;7.12;0.60;;;32.00;29.00;;;;;;4356822;32;20556;-40
2021/06/19 05:47:17;;;;;;;2.97;0.30;;;32.00;28.10;;;;;;4356836;32;20086;-38
2021/06/19 05:49:44;;;;;;;2.08;0.70;;;31.90;27.70;;;;;;4356382;32;20125;-38
2021/06/19 05:52:10;;;;;;;3.62;0.50;;;31.90;28.40;;;;;;4344230;32;20082;-37
2021/06/19 05:54:37;;;;;;;2.30;0.20;;;31.80;27.90;;;;;;4356672;32;20202;-37
2021/06/19 05:57:05;;;;;;;0.40;0.20;;;31.90;27.00;;;;;;4356973;32;20521;-38
2021/06/19 05:59:32;;;;;;;4.85;0.20;;;31.90;27.90;;;;;;4341599;33;20152;-38
2021/06/19 06:01:58;;;;;;;2.53;0.32;;;32.00;27.20;;;;;;4341661;33;20074;-38
2021/06/19 06:04:25;;;;;;;0.93;0.20;;;31.90;27.40;;;;;;4341373;33;20089;-38
2021/06/19 06:06:51;;;;;;;0.50;0.20;;;32.00;27.60;;;;;;4341306;33;20115;-37
2021/06/19 06:09:17;;;;;;;4.97;0.30;;;32.10;27.30;;;;;;4341287;33;20158;-38
2021/06/19 06:11:44;;;;;;;0.80;0.20;;;32.10;27.10;;;;;;4346199;32;20073;-38
2021/06/19 06:14:11;;;;;;;0.40;0.20;;;32.20;26.80;;;;;;4370981;32;20094;-39
2021/06/19 06:16:38;;;;;;;4.68;0.30;;;32.40;27.20;;;;;;4358458;32;20681;-37
2021/06/19 06:19:05;;;;;;;0.52;0.30;;;32.70;27.40;;;;;;4371337;32;20719;-37
2021/06/19 06:21:31;;;;;;;5.25;0.22;;;33.00;27.20;;;;;;4358658;32;20094;-39
2021/06/19 06:23:58;;;;;;;1.70;0.30;;;33.10;26.70;;;;;;4371189;32;20069;-38
2021/06/19 06:26:24;;;;;;;3.60;0.40;;;33.10;26.70;;;;;;4371095;32;20051;-38
2021/06/19 06:28:51;;;;;;;3.03;0.57;;;33.10;26.50;;;;;;4358606;32;20057;-38
2021/06/19 06:31:17;;;;;;;1.95;0.30;;;33.20;26.20;;;;;;4370610;32;20626;-38
2021/06/19 06:33:44;;;;;;;4.62;0.30;;;33.30;25.90;;;;;;4370632;32;20082;-38
2021/06/19 06:36:10;;;;;;;5.78;0.35;;;33.30;25.60;;;;;;4373110;32;20058;-38
2021/06/19 06:38:36;;;;;;;7.93;0.40;;;33.30;25.80;;;;;;4388099;32;20171;-37
2021/06/19 06:41:03;;;;;;;6.97;2.65;;;33.10;25.60;;;;;;4388487;32;20066;-38
2021/06/19 06:43:29;;;;;;;1.17;0.20;;;33.00;25.90;;;;;;4387580;32;20193;-38
2021/06/19 06:45:56;;;;;;;2.35;0.35;;;32.80;26.10;;;;;;4387713;32;20069;-38
2021/06/19 06:48:23;;;;;;;5.75;0.30;;;32.70;26.80;;;;;;4388054;32;20061;-38
2021/06/19 06:50:50;;;;;;;1.83;0.30;;;32.80;26.10;;;;;;4388329;32;20154;-38
2021/06/19 06:53:16;;;;;;;3.42;0.50;;;32.70;26.00;;;;;;4388234;32;20061;-38
2021/06/19 06:55:43;;;;;;;4.22;0.30;;;32.40;26.40;;;;;;4388154;32;20066;-38
2021/06/19 06:58:09;;;;;;;10.35;0.75;;;32.30;26.70;;;;;;4388099;32;20065;-38
2021/06/19 07:00:36;;;;;;;5.18;0.40;;;32.10;26.60;;;;;;4388154;32;20115;-38
2021/06/19 07:03:02;;;;;;;16.40;1.23;;;32.10;26.60;;;;;;4386738;32;20067;-38
2021/06/19 07:05:29;;;;;;;3.15;0.30;;;32.10;26.70;;;;;;4386401;32;20489;-38
2021/06/19 07:07:55;;;;;;;6.43;0.60;;;32.10;26.70;;;;;;4387967;32;20090;-38
2021/06/19 07:10:22;;;;;;;1.70;0.40;;;32.30;26.80;;;;;;4387960;32;20060;-38
2021/06/19 07:12:48;;;;;;;4.37;0.30;;;32.40;26.50;;;;;;4388063;32;20146;-38
2021/06/19 07:15:16;;;;;;;3.70;0.43;;;32.40;27.10;;;;;;4386388;32;20080;-37
2021/06/19 07:17:47;;;;;;;2.30;0.47;;;32.50;26.40;;;;;;4388020;32;20097;-39
2021/06/19 07:20:14;;;;;;;2.67;0.30;;;32.40;26.70;;;;;;4388040;32;20105;-37
2021/06/19 07:22:41;;;;;;;4.00;0.43;;;32.30;26.90;;;;;;4386422;32;20161;-36
2021/06/19 07:25:08;;;;;;;3.20;0.30;;;32.20;26.90;;;;;;4388416;32;20717;-38
2021/06/19 07:27:35;;;;;;;2.78;0.20;;;32.20;26.70;;;;;;4387702;32;20058;-37
2021/06/19 07:30:06;;;;;;;1.52;0.40;;;32.10;26.90;;;;;;4387600;32;20514;-37
2021/06/19 07:32:32;;;;;;;1.52;0.40;;;32.10;27.30;;;;;;4386204;32;20070;-38
2021/06/19 07:34:59;;;;;;;3.45;0.30;;;32.30;26.60;;;;;;4388283;32;20054;-37
2021/06/19 07:37:25;;;;;;;4.60;0.40;;;32.40;26.40;;;;;;4387865;32;20066;-37
2021/06/19 07:39:54;;;;;;;52.15;3.53;;;32.40;25.70;;;;;;4385857;32;20065;-38
2021/06/19 07:42:22;;;;;;;8.50;0.60;;;32.50;25.80;;;;;;4385822;32;20077;-37
2021/06/19 07:44:48;;;;;;;3.87;0.32;;;32.50;25.70;;;;;;4387647;32;20134;-38
2021/06/19 07:47:15;;;;;;;3.30;0.30;;;32.60;26.30;;;;;;4387675;32;20066;-38
2021/06/19 07:49:41;;;;;;;4.65;0.65;;;32.70;26.30;;;;;;4387591;32;20097;-37
2021/06/19 07:52:08;;;;;;;2.97;0.32;;;32.90;26.60;;;;;;4387728;32;20054;-39
2021/06/19 07:54:37;;;;;;;6.28;0.82;;;33.00;26.20;;;;;;4387454;32;20081;-38
2021/06/19 07:57:07;;;;;;;2.05;0.30;;;33.10;25.80;;;;;;4387225;32;20481;-38
2021/06/19 07:59:36;;;;;;;6.10;0.82;;;33.10;26.30;;;;;;4373814;32;20073;-38
2021/06/19 08:02:05;;;;;;;5.70;0.30;;;33.30;26.30;;;;;;4374081;32;20076;-37
2021/06/19 08:04:34;;;;;;;2.12;0.20;;;33.40;25.40;;;;;;4373805;32;20150;-38
2021/06/19 08:07:04;;;;;;;0.85;0.20;;;33.50;25.70;;;;;;4387412;32;20525;-38
2021/06/19 08:09:30;;;;;;;5.05;0.20;;;33.60;25.30;;;;;;4354549;32;20502;-37
2021/06/19 08:11:58;;;;;;;0.82;0.30;;;33.50;25.00;;;;;;4355122;32;20633;-37
2021/06/19 08:14:24;;;;;;;1.85;0.28;;;33.40;25.00;;;;;;4354788;32;20191;-38
2021/06/19 08:16:56;;;;;;;1.20;0.30;;;33.30;24.90;;;;;;4343025;32;20613;-37
2021/06/19 08:19:25;;;;;;;3.05;0.20;;;33.20;24.90;;;;;;4355128;32;20204;-37
2021/06/19 08:21:52;;;;;;;3.35;0.32;;;33.10;25.20;;;;;;4354972;32;20065;-38
2021/06/19 08:24:18;;;;;;;5.32;0.30;;;33.00;25.00;;;;;;4342566;32;20110;-37
2021/06/19 08:26:45;;;;;;;1.75;0.30;;;33.10;25.60;;;;;;4342493;32;20077;-38
2021/06/19 08:29:11;;;;;;;2.78;0.30;;;33.20;25.70;;;;;;4354853;32;20085;-39
2021/06/19 08:31:39;;;;;;;1.42;0.30;;;33.30;25.70;;;;;;4355054;32;20082;-38
2021/06/19 08:34:07;;;;;;;0.47;0.20;;;33.40;25.60;;;;;;4355002;32;20469;-38
2021/06/19 08:36:33;;;;;;;6.32;0.30;;;33.40;25.40;;;;;;4354972;32;20112;-38
2021/06/19 08:39:00;;;;;;;3.30;0.45;;;33.50;25.00;;;;;;4344356;32;20063;-37
2021/06/19 08:41:27;;;;;;;6.03;0.20;;;33.40;24.80;;;;;;4372529;32;20669;-38
2021/06/19 08:43:53;;;;;;;5.43;0.28;;;33.40;25.10;;;;;;4389866;32;20150;-37
2021/06/19 08:46:22;;;;;;;3.37;0.30;;;33.30;25.50;;;;;;4389601;32;20068;-38
2021/06/19 08:48:52;;;;;;;1.92;0.68;;;33.20;25.30;;;;;;4400218;32;20064;-38
2021/06/19 08:51:20;;;;;;;1.40;0.40;;;33.30;25.30;;;;;;4405350;32;20120;-38
2021/06/19 08:53:49;;;;;;;0.93;0.20;;;33.40;25.30;;;;;;4405212;32;20070;-38
2021/06/19 08:56:17;;;;;;;3.95;0.40;;;33.40;25.40;;;;;;4405226;32;20057;-38
2021/06/19 08:58:44;;;;;;;5.05;1.12;;;33.40;25.30;;;;;;4405335;32;20065;-36
2021/06/19 09:01:12;;;;;;;1.30;0.30;;;33.50;25.40;;;;;;4391091;32;20057;-39
2021/06/19 09:03:38;;;;;;;2.70;0.30;;;33.70;24.70;;;;;;4404636;32;20073;-39
2021/06/19 09:06:25;;;;;;;2.25;0.30;;;33.70;24.90;;;;;;4390706;32;20253;-38
2021/06/19 09:09:21;;;;;;;2.78;0.95;;;33.80;24.40;;;;;;4404898;32;20144;-39
2021/06/19 09:11:52;;;;;;;1.85;0.30;;;33.70;25.00;;;;;;4371759;32;20138;-37
2021/06/19 09:14:24;;;;;;;3.20;0.93;;;33.90;25.10;;;;;;4371913;32;20077;-43
2021/06/19 09:17:05;;;;;;;2.25;0.20;;;33.90;24.20;;;;;;4371971;32;20523;-39
2021/06/19 09:19:39;;;;;;;1.80;0.43;;;34.00;24.40;;;;;;4359695;32;20058;-39
2021/06/19 09:22:21;;;;;;;;;;;34.00;24.40;;;;;;4372317;32;20160;-38
2021/06/19 09:24:53;;;;;;;3.35;0.30;;;34.10;24.50;;;;;;4371863;32;19961;-39
2021/06/19 09:27:38;;;;;;;4.60;0.30;;;34.20;24.10;;;;;;4371859;32;20141;-38
2021/06/19 09:30:08;;;;;;;3.50;0.32;;;34.10;24.20;;;;;;4372115;32;20588;-39
2021/06/19 09:32:39;;;;;;;1.02;0.40;;;34.10;24.30;;;;;;4371431;32;20189;-38
2021/06/19 09:35:29;;;;;;;2.05;0.30;;;34.10;23.90;;;;;;4359441;32;20595;-38
2021/06/19 09:38:07;;;;;;;0.50;0.25;;;34.20;24.10;;;;;;4371582;32;20074;-38
2021/06/19 09:40:41;;;;;;;1.95;0.40;;;34.30;23.80;;;;;;4371253;32;20093;-38
2021/06/19 09:43:22;;;;;;;;;;;34.40;23.90;;;;;;4360029;32;20563;-38
2021/06/19 09:46:08;;;;;;;3.12;0.20;;;34.60;24.00;;;;;;4371723;32;20393;-38
2021/06/19 09:48:46;;;;;;;5.05;0.75;;;34.60;23.50;;;;;;4383850;32;20054;-38
2021/06/19 09:51:24;;;;;;;2.00;0.30;;;34.70;23.40;;;;;;4388441;32;20070;-39
2021/06/19 09:53:52;;;;;;;2.30;0.20;;;34.70;23.40;;;;;;4388937;32;20546;-40
2021/06/19 09:56:20;;;;;;;0.80;0.50;;;34.60;23.50;;;;;;4389033;32;20054;-39
2021/06/19 09:58:55;;;;;;;4.60;0.30;;;34.60;23.60;;;;;;4389026;32;20521;-39
2021/06/19 10:01:42;;;;;;;0.68;0.22;;;34.60;23.70;;;;;;4389088;32;20066;-40
2021/06/19 10:04:09;;;;;;;4.03;0.35;;;34.60;23.60;;;;;;4388651;32;20062;-40
2021/06/19 10:06:36;;;;;;;6.32;0.30;;;34.60;24.10;;;;;;4371831;32;20132;-39
2021/06/19 10:09:03;;;;;;;1.65;0.57;;;34.60;23.70;;;;;;4372401;32;20066;-40
2021/06/19 10:11:30;;;;;;;2.40;0.30;;;34.60;23.80;;;;;;4374000;32;20055;-39
2021/06/19 10:14:00;;;;;;;3.08;0.30;;;34.50;23.90;;;;;;4373476;32;20074;-40
2021/06/19 10:16:28;;;;;;;1.10;0.20;;;34.60;23.90;;;;;;4373758;32;20097;-39
2021/06/19 10:18:55;;;;;;;3.20;0.28;;;34.70;23.90;;;;;;4373794;32;20066;-40
2021/06/19 10:21:22;;;;;;;0.70;0.30;;;35.00;23.60;;;;;;4373525;32;20077;-38
2021/06/19 10:23:49;;;;;;;3.28;0.50;;;35.10;23.40;;;;;;4373902;32;20062;-37
2021/06/19 10:26:21;;;;;;;0.68;0.30;;;35.00;23.20;;;;;;4373623;32;20051;-38
2021/06/19 10:28:50;;;;;;;0.80;0.30;;;34.80;23.60;;;;;;4372571;32;20537;-40
2021/06/19 10:31:19;;;;;;;6.50;0.30;;;34.80;23.40;;;;;;4373697;32;20146;-39
2021/06/19 10:33:46;;;;;;;2.00;0.40;;;34.80;23.20;;;;;;4373684;32;20489;-40
2021/06/19 10:36:15;;;;;;;2.55;0.40;;;34.80;23.90;;;;;;4373376;32;20210;-39
2021/06/19 10:38:57;;;;;;;2.22;0.20;;;34.80;23.70;;;;;;4373551;32;20454;-40
2021/06/19 10:41:44;;;;;;;2.45;0.35;;;34.90;23.60;;;;;;4373354;32;20152;-40
2021/06/19 10:44:10;;;;;;;3.78;0.30;;;35.00;23.80;;;;;;4371982;32;20202;-40
2021/06/19 10:46:38;;;;;;;0.30;0.13;;;35.30;24.00;;;;;;4372013;32;20184;-38
2021/06/19 10:49:20;;;;;;;8.13;0.40;;;35.50;23.80;;;;;;4373242;32;20139;-39
2021/06/19 10:51:47;;;;;;;1.83;0.22;;;35.70;23.90;;;;;;4373311;32;20240;-40
2021/06/19 10:54:18;;;;;;;2.67;0.30;;;35.80;24.10;;;;;;4373068;32;20059;-38
2021/06/19 10:56:51;;;;;;;3.60;0.30;;;35.70;24.20;;;;;;4372941;32;20063;-39
2021/06/19 10:59:25;;;;;;;5.20;0.77;;;35.70;24.40;;;;;;4373367;32;20510;-40
2021/06/19 11:01:57;;;;;;;2.60;0.28;;;35.80;24.20;;;;;;4372495;32;20054;-36
2021/06/19 11:04:36;;;;;;;2.00;0.30;;;35.90;24.40;;;;;;4372861;32;20572;-39
2021/06/19 11:07:04;;;;;;;0.37;0.20;;;36.30;24.80;;;;;;4388908;32;20065;-40
2021/06/19 11:09:44;;;;;;;2.78;0.30;;;36.60;24.70;;;;;;4388914;32;20124;-40
2021/06/19 11:12:22;;;;;;;1.05;0.30;;;36.90;24.40;;;;;;4389131;32;20509;-39
2021/06/19 11:15:05;;;;;;;1.52;0.28;;;37.30;24.10;;;;;;4403226;32;20492;-38
2021/06/19 11:17:31;;;;;;;3.65;0.20;;;37.50;23.90;;;;;;4390123;32;20073;-39
2021/06/19 11:20:22;;;;;;;4.15;0.30;;;37.70;23.80;;;;;;4402860;32;20149;-38
2021/06/19 11:22:59;;;;;;;5.37;0.40;;;37.70;23.90;;;;;;4402934;32;20060;-39
2021/06/19 11:26:03;;;;;;;1.77;0.40;;;37.90;23.50;;;;;;4403394;32;20464;-40
2021/06/19 11:28:26;;;;;;;2.05;0.20;;;38.00;23.60;;;;;;4390958;32;20053;-39
2021/06/19 11:30:54;;;;;;;2.15;0.28;;;38.20;23.20;;;;;;4389849;32;20093;-38
2021/06/19 11:33:21;;;;;;;3.65;0.30;;;38.30;23.60;;;;;;4403621;32;20053;-41
2021/06/19 11:35:58;;;;;;;3.03;0.30;;;38.30;23.70;;;;;;4403594;32;20061;-40
2021/06/19 11:38:25;;;;;;;0.40;0.32;;;38.30;23.80;;;;;;4403050;32;20046;-38
2021/06/19 11:40:52;;;;;;;6.25;0.50;;;38.40;24.10;;;;;;4384906;32;20069;-38
2021/06/19 11:43:31;;;;;;;1.65;0.32;;;38.40;23.70;;;;;;4385426;32;20089;-38
2021/06/19 11:46:01;;;;;;;3.03;0.32;;;38.30;23.90;;;;;;4385122;32;20085;-38
2021/06/19 11:48:28;;;;;;;1.35;0.40;;;38.00;23.20;;;;;;4364567;32;20074;-39
2021/06/19 11:51:06;;;;;;;1.00;0.30;;;37.70;23.70;;;;;;4370323;32;20058;-37
2021/06/19 11:53:38;;;;;;;1.00;0.35;;;37.50;24.00;;;;;;4370223;32;20062;-37
2021/06/19 11:56:19;;;;;;;2.37;0.40;;;37.50;24.20;;;;;;4369945;32;20070;-38
2021/06/19 11:58:59;;;;;;;1.08;0.37;;;37.60;24.50;;;;;;4370128;32;20085;-38
2021/06/19 12:01:38;;;;;;;2.67;0.30;;;37.70;24.70;;;;;;4370180;32;20068;-39
2021/06/19 12:04:14;;;;;;;0.93;0.30;;;37.80;24.50;;;;;;4370329;32;20144;-39
2021/06/19 12:07:01;;;;;;;3.05;0.60;;;37.90;23.80;;;;;;4370128;32;20070;-38
2021/06/19 12:09:33;;;;;;;5.75;0.50;;;38.00;23.80;;;;;;4369757;32;20561;-37
2021/06/19 12:12:11;;;;;;;5.68;0.60;;;38.20;23.90;;;;;;4379643;32;20119;-39
2021/06/19 12:14:39;;;;;;;1.55;0.40;;;38.20;24.00;;;;;;4390448;32;20127;-38
2021/06/19 12:17:11;;;;;;;1.08;0.32;;;38.00;23.50;;;;;;4390342;32;20093;-38
2021/06/19 12:19:40;;;;;;;2.37;0.50;;;37.70;23.80;;;;;;4390389;32;20073;-38
2021/06/19 12:22:09;;;;;;;7.00;1.05;;;37.60;24.10;;;;;;4390379;32;20187;-37
2021/06/19 12:24:42;;;;;;;5.70;0.30;;;37.60;24.20;;;;;;4390155;32;20522;-38
2021/06/19 12:27:15;;;;;;;4.90;0.40;;;37.70;24.10;;;;;;4390503;32;20058;-37
2021/06/19 12:29:52;;;;;;;2.72;0.35;;;37.70;24.30;;;;;;4390038;32;20062;-38
2021/06/19 12:32:31;;;;;;;1.08;0.30;;;37.70;24.00;;;;;;4376145;32;20507;-37
2021/06/19 12:35:01;;;;;;;2.08;0.30;;;37.60;24.00;;;;;;4390010;32;20080;-36
2021/06/19 12:37:32;;;;;;;8.32;0.93;;;37.40;24.10;;;;;;4390075;32;20546;-36
2021/06/19 12:40:01;;;;;;;0.22;0.22;;;37.40;24.30;;;;;;4375763;32;20177;-38
2021/06/19 12:42:43;;;;;;;2.53;0.40;;;37.60;23.90;;;;;;4389843;32;20094;-37
2021/06/19 12:45:12;;;;;;;2.12;0.32;;;37.70;24.40;;;;;;4389984;32;20090;-37
2021/06/19 12:47:43;;;;;;;3.17;0.40;;;37.60;24.30;;;;;;4390049;32;20141;-39
2021/06/19 12:50:34;;;;;;;6.70;0.93;;;37.60;24.60;;;;;;4389684;32;20454;-39
2021/06/19 12:53:12;;;;;;;3.92;0.40;;;37.70;24.50;;;;;;4385127;32;20053;-38
2021/06/19 12:55:41;;;;;;;2.75;0.40;;;37.80;24.40;;;;;;4376117;32;20066;-38